createdAt,value
2023-05-18T00:01:17.869Z,101083.75
2023-05-18T00:03:47.525Z,101077.34
2023-05-18T00:06:16.509Z,101073.28
2023-05-18T00:08:44.849Z,101065.19
2023-05-18T00:11:13.298Z,101065.34
2023-05-18T00:13:41.769Z,101057.75
2023-05-18T00:16:12.185Z,101064.13
2023-05-18T00:18:42.063Z,101055.38
2023-05-18T00:21:10.616Z,101058.41
2023-05-18T00:23:39.736Z,101056.72
2023-05-18T00:26:08.217Z,101049.66
2023-05-18T00:28:36.604Z,101050.34
2023-05-18T00:31:06.619Z,101047.47
2023-05-18T00:33:35.116Z,101052.03
2023-05-18T00:36:05.196Z,101047.47
2023-05-18T00:38:33.860Z,101052.19
2023-05-18T00:41:02.267Z,101055.72
2023-05-18T00:43:30.771Z,101047.81
2023-05-18T00:45:59.218Z,101050.50
2023-05-18T00:48:27.813Z,101048.31
2023-05-18T00:50:56.180Z,101046.94
2023-05-18T00:53:26.580Z,101052.63
2023-05-18T00:55:55.006Z,101048.94
2023-05-18T00:58:23.615Z,101055.31
2023-05-18T01:00:57.529Z,101056.16
2023-05-18T01:03:26.454Z,101058.69
2023-05-18T01:05:55.878Z,101060.38
2023-05-18T01:08:27.727Z,101056.53
2023-05-18T01:11:02.400Z,101054.84
2023-05-18T01:13:42.318Z,101060.06
2023-05-18T01:16:14.062Z,101061.91
2023-05-18T01:18:49.316Z,101062.75
2023-05-18T01:21:26.493Z,101061.91
2023-05-18T01:24:06.060Z,101058.53
2023-05-18T01:26:41.945Z,101053.00
2023-05-18T01:29:11.686Z,101061.56
2023-05-18T01:31:41.208Z,101052.84
2023-05-18T01:34:10.017Z,101049.97
2023-05-18T01:36:38.406Z,101048.31
2023-05-18T01:39:07.425Z,101037.69
2023-05-18T01:41:40.708Z,101052.00
2023-05-18T01:44:17.520Z,101051.16
2023-05-18T01:46:54.733Z,101042.41
2023-05-18T01:49:32.306Z,101042.25
2023-05-18T01:52:05.759Z,101045.13
2023-05-18T01:54:35.811Z,101042.78
2023-05-18T01:57:09.723Z,101045.84
2023-05-18T01:59:39.156Z,101044.50
2023-05-18T02:02:08.189Z,101044.88
2023-05-18T02:04:37.943Z,101050.94
2023-05-18T02:07:06.502Z,101045.41
2023-05-18T02:09:34.949Z,101046.09
2023-05-18T02:12:03.363Z,101047.59
2023-05-18T02:14:33.953Z,101046.44
2023-05-18T02:17:02.501Z,101054.31
2023-05-18T02:19:31.788Z,101048.78
2023-05-18T02:22:00.233Z,101054.00
2023-05-18T02:24:28.979Z,101054.84
2023-05-18T02:26:58.474Z,101057.69
2023-05-18T02:29:27.005Z,101055.84
2023-05-18T02:31:56.886Z,101053.47
2023-05-18T02:34:27.694Z,101049.28
2023-05-18T02:37:03.748Z,101057.53
2023-05-18T02:39:34.077Z,101053.31
2023-05-18T02:42:02.614Z,101049.94
2023-05-18T02:44:31.134Z,101051.94
2023-05-18T02:47:01.184Z,101051.09
2023-05-18T02:49:29.680Z,101049.56
2023-05-18T02:51:58.080Z,101051.72
2023-05-18T02:54:26.551Z,101053.91
2023-05-18T02:56:57.065Z,101050.69
2023-05-18T02:59:37.846Z,101046.97
2023-05-18T03:02:08.220Z,101042.59
2023-05-18T03:04:37.973Z,101040.22
2023-05-18T03:07:08.165Z,101037.53
2023-05-18T03:09:36.684Z,101037.38
2023-05-18T03:12:05.961Z,101037.06
2023-05-18T03:14:34.428Z,101038.22
2023-05-18T03:17:06.159Z,101033.84
2023-05-18T03:19:36.816Z,101034.34
2023-05-18T03:22:06.059Z,101034.50
2023-05-18T03:24:40.880Z,101030.13
2023-05-18T03:27:17.495Z,101033.81
2023-05-18T03:29:47.509Z,101039.88
2023-05-18T03:32:16.079Z,101040.56
2023-05-18T03:34:47.813Z,101043.25
2023-05-18T03:37:17.237Z,101039.72
2023-05-18T03:39:46.235Z,101036.19
2023-05-18T03:42:14.951Z,101033.34
2023-05-18T03:44:43.657Z,101037.03
2023-05-18T03:47:12.808Z,101039.03
2023-05-18T03:49:41.455Z,101030.59
2023-05-18T03:52:15.385Z,101038.66
2023-05-18T03:54:44.367Z,101036.28
2023-05-18T03:57:12.688Z,101039.44
2023-05-18T03:59:41.234Z,101036.41
2023-05-18T04:02:09.805Z,101041.09
2023-05-18T04:04:42.059Z,101041.94
2023-05-18T04:07:13.654Z,101040.09
2023-05-18T04:09:44.432Z,101052.84
2023-05-18T04:12:13.044Z,101054.00
2023-05-18T04:14:42.614Z,101044.25
2023-05-18T04:17:11.260Z,101050.31
2023-05-18T04:19:39.767Z,101045.09
2023-05-18T04:22:11.612Z,101041.41
2023-05-18T04:24:41.446Z,101037.88
2023-05-18T04:27:12.296Z,101046.78
2023-05-18T04:29:44.576Z,101044.41
2023-05-18T04:32:13.130Z,101051.78
2023-05-18T04:34:42.689Z,101046.25
2023-05-18T04:37:13.153Z,101048.25
2023-05-18T04:39:42.394Z,101046.41
2023-05-18T04:42:14.210Z,101045.41
2023-05-18T04:44:43.906Z,101051.31
2023-05-18T04:47:12.664Z,101051.16
2023-05-18T04:49:41.173Z,101051.84
2023-05-18T04:52:10.558Z,101057.91
2023-05-18T04:54:41.343Z,101057.91
2023-05-18T04:57:10.222Z,101067.81
2023-05-18T04:59:38.775Z,101067.31
2023-05-18T05:02:07.477Z,101068.84
2023-05-18T05:04:36.033Z,101065.84
2023-05-18T05:07:04.434Z,101077.59
2023-05-18T05:09:32.802Z,101075.44
2023-05-18T05:12:02.735Z,101075.59
2023-05-18T05:14:31.285Z,101079.50
2023-05-18T05:16:59.728Z,101077.81
2023-05-18T05:19:29.152Z,101075.28
2023-05-18T05:21:57.761Z,101089.41
2023-05-18T05:24:26.418Z,101083.88
2023-05-18T05:26:54.776Z,101089.94
2023-05-18T05:29:26.555Z,101095.69
2023-05-18T05:31:55.551Z,101094.53
2023-05-18T05:34:24.190Z,101096.38
2023-05-18T05:36:52.657Z,101101.44
2023-05-18T05:39:21.043Z,101106.47
2023-05-18T05:41:50.338Z,101112.69
2023-05-18T05:44:18.866Z,101110.00
2023-05-18T05:46:49.370Z,101123.66
2023-05-18T05:49:18.248Z,101111.91
2023-05-18T05:51:46.682Z,101114.09
2023-05-18T05:54:15.768Z,101120.00
2023-05-18T05:56:45.069Z,101117.00
2023-05-18T05:59:14.502Z,101120.69
2023-05-18T06:01:43.123Z,101122.38
2023-05-18T06:04:13.442Z,101113.69
2023-05-18T06:06:42.364Z,101116.38
2023-05-18T06:09:11.886Z,101122.41
2023-05-18T06:11:40.718Z,101123.25
2023-05-18T06:14:09.552Z,101123.09
2023-05-18T06:16:38.569Z,101126.47
2023-05-18T06:19:07.219Z,101120.75
2023-05-18T06:21:37.303Z,101126.66
2023-05-18T06:24:06.472Z,101128.88
2023-05-18T06:26:45.448Z,101134.94
2023-05-18T06:29:28.363Z,101141.31
2023-05-18T06:32:15.475Z,101141.31
2023-05-18T06:34:47.436Z,101143.16
2023-05-18T06:37:17.519Z,101148.25
2023-05-18T06:39:45.999Z,101145.53
2023-05-18T06:42:14.381Z,101148.06
2023-05-18T06:44:52.795Z,101150.78
2023-05-18T06:47:24.759Z,101147.06
2023-05-18T06:49:53.268Z,101145.38
2023-05-18T06:52:26.331Z,101149.75
2023-05-18T06:54:56.275Z,101146.59
2023-05-18T06:57:27.124Z,101149.81
2023-05-18T06:59:57.105Z,101153.03
2023-05-18T07:02:28.951Z,101149.16
2023-05-18T07:04:59.409Z,101152.69
2023-05-18T07:07:45.215Z,101157.44
2023-05-18T07:10:16.330Z,101152.06
2023-05-18T07:12:44.855Z,101161.34
2023-05-18T07:15:13.387Z,101159.50
2023-05-18T07:17:43.139Z,101170.78
2023-05-18T07:20:11.947Z,101160.50
2023-05-18T07:22:41.781Z,101164.06
2023-05-18T07:25:14.209Z,101166.09
2023-05-18T07:27:46.297Z,101168.63
2023-05-18T07:30:15.458Z,101169.69
2023-05-18T07:32:45.478Z,101166.97
2023-05-18T07:35:16.914Z,101171.06
2023-05-18T07:37:47.003Z,101165.69
2023-05-18T07:40:15.483Z,101164.81
2023-05-18T07:42:44.485Z,101164.69
2023-05-18T07:45:13.617Z,101169.75
2023-05-18T07:47:42.063Z,101168.88
2023-05-18T07:50:11.446Z,101163.94
2023-05-18T07:52:39.796Z,101170.44
2023-05-18T07:55:10.405Z,101165.22
2023-05-18T07:57:38.891Z,101172.28
2023-05-18T08:00:10.431Z,101173.78
2023-05-18T08:02:41.895Z,101175.09
2023-05-18T08:05:11.177Z,101174.41
2023-05-18T08:07:39.785Z,101183.66
2023-05-18T08:10:10.427Z,101176.84
2023-05-18T08:12:39.865Z,101166.81
2023-05-18T08:15:09.984Z,101164.28
2023-05-18T08:17:38.405Z,101163.63
2023-05-18T08:20:08.494Z,101163.75
2023-05-18T08:22:36.890Z,101161.59
2023-05-18T08:25:05.763Z,101159.81
2023-05-18T08:27:35.597Z,101166.31
2023-05-18T08:30:04.222Z,101163.56
2023-05-18T08:32:33.134Z,101168.72
2023-05-18T08:35:01.569Z,101166.31
2023-05-18T08:37:31.274Z,101163.03
2023-05-18T08:40:00.898Z,101165.97
2023-05-18T08:42:48.396Z,101171.03
2023-05-18T08:45:25.446Z,101164.41
2023-05-18T08:47:57.422Z,101165.06
2023-05-18T08:50:27.716Z,101168.97
2023-05-18T08:52:57.520Z,101174.59
2023-05-18T08:55:27.779Z,101130.53
2023-05-18T08:58:00.475Z,101175.91
2023-05-18T09:00:30.905Z,101168.81
2023-05-18T09:03:00.043Z,101175.09
2023-05-18T09:05:28.817Z,101181.50
2023-05-18T09:07:57.918Z,101170.56
2023-05-18T09:10:27.270Z,101177.84
2023-05-18T09:12:58.010Z,101178.19
2023-05-18T09:15:27.878Z,101176.41
2023-05-18T09:17:57.722Z,101174.06
2023-05-18T09:20:27.581Z,101168.94
2023-05-18T09:22:57.068Z,101180.44
2023-05-18T09:25:26.177Z,101165.88
2023-05-18T09:27:55.882Z,101175.00
2023-05-18T09:30:26.551Z,101163.78
2023-05-18T09:32:55.125Z,101168.88
2023-05-18T09:35:26.701Z,101176.06
2023-05-18T09:37:55.759Z,101176.78
2023-05-18T09:40:30.830Z,101168.41
2023-05-18T09:42:59.254Z,101169.78
2023-05-18T09:45:28.917Z,101173.38
2023-05-18T09:47:57.664Z,101176.63
2023-05-18T09:50:27.557Z,101175.81
2023-05-18T09:52:57.661Z,101176.94
2023-05-18T09:55:26.216Z,101180.09
2023-05-18T09:57:54.680Z,101179.06
2023-05-18T10:00:25.578Z,101188.72
2023-05-18T10:02:54.271Z,101186.63
2023-05-18T10:05:23.756Z,101184.72
2023-05-18T10:07:54.193Z,101192.03
2023-05-18T10:10:24.692Z,101193.31
2023-05-18T10:12:53.694Z,101193.19
2023-05-18T10:15:24.734Z,101192.28
2023-05-18T10:17:58.049Z,101196.19
2023-05-18T10:20:27.104Z,101197.34
2023-05-18T10:22:59.987Z,101201.41
2023-05-18T10:25:30.539Z,101201.22
2023-05-18T10:28:05.433Z,101207.00
2023-05-18T10:30:36.200Z,101198.19
2023-05-18T10:33:14.001Z,101203.03
2023-05-18T10:35:50.823Z,101197.38
2023-05-18T10:38:25.130Z,101185.03
2023-05-18T10:40:55.251Z,101189.03
2023-05-18T10:43:27.768Z,101187.25
2023-05-18T10:45:58.183Z,101186.44
2023-05-18T10:48:29.158Z,101182.16
2023-05-18T10:50:59.481Z,101180.88
2023-05-18T10:53:30.686Z,101169.41
2023-05-18T10:55:59.207Z,101172.75
2023-05-18T10:58:29.248Z,101157.41
2023-05-18T11:01:00.039Z,101179.31
2023-05-18T11:03:29.200Z,101165.94
2023-05-18T11:06:08.975Z,101167.94
2023-05-18T11:08:47.870Z,101166.31
2023-05-18T11:11:19.282Z,101167.78
2023-05-18T11:13:50.691Z,101158.44
2023-05-18T11:16:20.112Z,101160.34
2023-05-18T11:18:49.582Z,101166.63
2023-05-18T11:21:22.781Z,101163.72
2023-05-18T11:24:24.254Z,101158.25
2023-05-18T11:26:54.352Z,101150.91
2023-05-18T11:29:25.911Z,101158.91
2023-05-18T11:31:56.303Z,101159.31
2023-05-18T11:34:47.829Z,101159.47
2023-05-18T11:37:17.219Z,101159.06
2023-05-18T11:39:59.769Z,101160.13
2023-05-18T11:42:34.499Z,101158.44
2023-05-18T11:45:08.306Z,101166.56
2023-05-18T11:47:38.121Z,101162.81
2023-05-18T11:50:09.176Z,101170.53
2023-05-18T11:52:47.267Z,101157.94
2023-05-18T11:55:19.453Z,101162.31
2023-05-18T11:57:52.536Z,101157.91
2023-05-18T12:00:22.439Z,101117.59
2023-05-18T12:02:52.926Z,101164.06
2023-05-18T12:05:22.452Z,101165.47
2023-05-18T12:07:54.895Z,101154.78
2023-05-18T12:10:25.200Z,101168.16
2023-05-18T12:12:54.261Z,101163.97
2023-05-18T12:15:24.119Z,101134.19
2023-05-18T12:17:53.240Z,101152.88
2023-05-18T12:20:25.299Z,101150.81
2023-05-18T12:22:56.071Z,101154.59
2023-05-18T12:25:28.130Z,101149.16
2023-05-18T12:27:57.958Z,101110.66
2023-05-18T12:30:35.273Z,101138.13
2023-05-18T12:33:05.167Z,101150.69
2023-05-18T12:35:34.053Z,101146.53
2023-05-18T12:38:03.086Z,101141.59
2023-05-18T12:40:44.867Z,101138.69
2023-05-18T12:43:14.194Z,101143.72
2023-05-18T12:45:45.734Z,101151.03
2023-05-18T12:48:15.601Z,101121.31
2023-05-18T12:50:48.917Z,101150.81
2023-05-18T12:53:18.295Z,101138.03
2023-05-18T12:55:57.891Z,101134.09
2023-05-18T12:58:26.730Z,101134.25
2023-05-18T13:00:55.169Z,101131.13
2023-05-18T13:03:24.641Z,101128.25
2023-05-18T13:06:04.785Z,101129.69
2023-05-18T13:08:35.632Z,101136.78
2023-05-18T13:11:13.434Z,101132.59
2023-05-18T13:14:04.756Z,101138.88
2023-05-18T13:16:35.039Z,101134.47
2023-05-18T13:19:05.402Z,101138.66
2023-05-18T13:21:34.361Z,101129.88
2023-05-18T13:24:03.276Z,101135.19
2023-05-18T13:26:33.292Z,101127.03
2023-05-18T13:29:01.846Z,101136.03
2023-05-18T13:31:30.754Z,101136.66
2023-05-18T13:33:59.262Z,101135.34
2023-05-18T13:36:29.775Z,101128.84
2023-05-18T13:38:58.373Z,101139.97
2023-05-18T13:41:27.314Z,101132.84
2023-05-18T13:43:57.221Z,101137.22
2023-05-18T13:46:26.080Z,101143.50
2023-05-18T13:48:54.581Z,101140.38
2023-05-18T13:51:23.024Z,101146.56
2023-05-18T13:53:51.501Z,101136.47
2023-05-18T13:56:19.987Z,101140.22
2023-05-18T13:58:48.349Z,101145.03
2023-05-18T14:01:18.800Z,101137.34
2023-05-18T14:03:47.501Z,101145.25
2023-05-18T14:06:15.983Z,101150.25
2023-05-18T14:08:44.416Z,101152.53
2023-05-18T14:11:12.760Z,101142.06
2023-05-18T14:13:41.276Z,101146.09
2023-05-18T14:16:10.002Z,101140.22
2023-05-18T14:18:39.923Z,101134.56
2023-05-18T14:21:08.404Z,101134.81
2023-05-18T14:23:36.935Z,101133.63
2023-05-18T14:26:05.421Z,101140.25
2023-05-18T14:28:33.857Z,101135.66
2023-05-18T14:31:02.317Z,101134.97
2023-05-18T14:33:30.816Z,101133.66
2023-05-18T14:36:01.043Z,101130.94
2023-05-18T14:38:29.509Z,101136.59
2023-05-18T14:40:57.899Z,101135.94
2023-05-18T14:43:26.362Z,101131.16
2023-05-18T14:46:07.330Z,101138.84
2023-05-18T14:48:37.384Z,101137.13
2023-05-18T14:51:07.454Z,101132.16
2023-05-18T14:53:35.947Z,101139.31
2023-05-18T14:56:08.698Z,101144.97
2023-05-18T14:58:37.729Z,101146.00
2023-05-18T15:01:06.360Z,101148.88
2023-05-18T15:03:35.092Z,101152.56
2023-05-18T15:06:03.670Z,101151.13
2023-05-18T15:08:34.530Z,101155.22
2023-05-18T15:11:03.029Z,101158.38
2023-05-18T15:13:32.034Z,101157.19
2023-05-18T15:16:00.798Z,101159.09
2023-05-18T15:18:29.484Z,101168.44
2023-05-18T15:20:57.920Z,101165.09
2023-05-18T15:23:27.168Z,101160.88
2023-05-18T15:25:56.976Z,101154.44
2023-05-18T15:28:25.503Z,101157.84
2023-05-18T15:30:54.629Z,101148.75
2023-05-18T15:33:23.173Z,101158.66
2023-05-18T15:35:51.791Z,101159.78
2023-05-18T15:38:20.244Z,101166.72
2023-05-18T15:40:50.487Z,101160.69
2023-05-18T15:43:20.579Z,101165.28
2023-05-18T15:45:49.014Z,101165.94
2023-05-18T15:48:17.462Z,101171.09
2023-05-18T15:50:46.411Z,101164.19
2023-05-18T15:53:16.088Z,101159.97
2023-05-18T15:55:44.661Z,101162.44
2023-05-18T15:58:14.824Z,101162.81
2023-05-18T16:00:44.688Z,101158.44
2023-05-18T16:03:14.177Z,101160.31
2023-05-18T16:05:42.722Z,101147.31
2023-05-18T16:08:11.144Z,101156.84
2023-05-18T16:10:39.544Z,101151.34
2023-05-18T16:13:08.063Z,101152.78
2023-05-18T16:15:38.418Z,101157.72
2023-05-18T16:18:08.543Z,101151.75
2023-05-18T16:20:36.953Z,101166.69
2023-05-18T16:23:06.374Z,101160.25
2023-05-18T16:25:34.829Z,101165.66
2023-05-18T16:28:03.527Z,101153.19
2023-05-18T16:30:32.210Z,101155.28
2023-05-18T16:33:00.924Z,101144.06
2023-05-18T16:35:31.980Z,101160.66
2023-05-18T16:38:00.696Z,101161.13
2023-05-18T16:40:29.144Z,101154.53
2023-05-18T16:42:57.703Z,101157.88
2023-05-18T16:45:27.322Z,101162.09
2023-05-18T16:47:55.759Z,101167.69
2023-05-18T16:50:24.414Z,101170.94
2023-05-18T16:52:54.285Z,101178.31
2023-05-18T16:55:23.841Z,101176.31
2023-05-18T16:57:52.469Z,101188.09
2023-05-18T17:00:22.118Z,101194.06
2023-05-18T17:02:52.754Z,101191.22
2023-05-18T17:05:23.077Z,101202.28
2023-05-18T17:07:54.189Z,101178.03
2023-05-18T17:10:22.818Z,101201.16
2023-05-18T17:12:51.844Z,101203.91
2023-05-18T17:15:21.265Z,101204.94
2023-05-18T17:17:49.682Z,101204.28
2023-05-18T17:20:18.232Z,101211.53
2023-05-18T17:22:46.650Z,101209.38
2023-05-18T17:25:16.533Z,101216.31
2023-05-18T17:27:45.036Z,101206.88
2023-05-18T17:30:13.807Z,101212.69
2023-05-18T17:32:42.315Z,101210.81
2023-05-18T17:35:13.964Z,101207.44
2023-05-18T17:37:42.819Z,101222.50
2023-05-18T17:40:11.831Z,101223.69
2023-05-18T17:42:41.832Z,101225.56
2023-05-18T17:45:11.540Z,101231.97
2023-05-18T17:47:41.760Z,101237.72
2023-05-18T17:50:10.737Z,101225.25
2023-05-18T17:52:39.079Z,101235.38
2023-05-18T17:55:08.771Z,101235.06
2023-05-18T17:57:37.259Z,101228.69
2023-05-18T18:00:09.383Z,101236.13
2023-05-18T18:02:40.060Z,101230.91
2023-05-18T18:05:09.136Z,101232.41
2023-05-18T18:07:37.556Z,101238.16
2023-05-18T18:10:06.944Z,101237.31
2023-05-18T18:12:35.369Z,101244.59
2023-05-18T18:15:03.892Z,101232.97
2023-05-18T18:17:33.840Z,101242.06
2023-05-18T18:20:02.362Z,101234.31
2023-05-18T18:22:31.052Z,101241.59
2023-05-18T18:25:00.219Z,101246.47
2023-05-18T18:27:29.658Z,101257.66
2023-05-18T18:29:58.087Z,101253.44
2023-05-18T18:32:26.731Z,101250.41
2023-05-18T18:34:56.610Z,101245.50
2023-05-18T18:37:25.100Z,101250.06
2023-05-18T18:39:53.527Z,101248.88
2023-05-18T18:42:22.048Z,101252.47
2023-05-18T18:44:53.021Z,101255.00
2023-05-18T18:47:21.472Z,101265.78
2023-05-18T18:49:49.806Z,101262.94
2023-05-18T18:52:19.746Z,101265.50
2023-05-18T18:54:48.224Z,101273.38
2023-05-18T18:57:16.777Z,101269.38
2023-05-18T18:59:45.201Z,101275.25
2023-05-18T19:02:13.795Z,101275.94
2023-05-18T19:04:42.346Z,101273.56
2023-05-18T19:07:10.713Z,101279.31
2023-05-18T19:09:40.583Z,101278.47
2023-05-18T19:12:09.898Z,101281.16
2023-05-18T19:14:38.470Z,101280.31
2023-05-18T19:17:06.898Z,101291.59
2023-05-18T19:19:37.336Z,101291.94
2023-05-18T19:22:06.203Z,101285.88
2023-05-18T19:24:34.686Z,101287.03
2023-05-18T19:27:04.880Z,101281.81
2023-05-18T19:29:36.700Z,101282.50
2023-05-18T19:32:08.119Z,101286.53
2023-05-18T19:34:36.702Z,101281.31
2023-05-18T19:37:05.266Z,101285.84
2023-05-18T19:39:33.652Z,101283.16
2023-05-18T19:42:02.074Z,101292.25
2023-05-18T19:44:32.183Z,101288.88
2023-05-18T19:47:01.065Z,101283.31
2023-05-18T19:49:29.851Z,101287.50
2023-05-18T19:51:58.381Z,101293.88
2023-05-18T19:54:27.212Z,101287.81
2023-05-18T19:56:55.878Z,101289.13
2023-05-18T19:59:24.740Z,101290.47
2023-05-18T20:01:57.834Z,101293.16
2023-05-18T20:04:28.737Z,101295.34
2023-05-18T20:06:58.324Z,101289.44
2023-05-18T20:09:26.879Z,101283.56
2023-05-18T20:11:56.263Z,101289.44
2023-05-18T20:14:24.818Z,101285.38
2023-05-18T20:16:56.350Z,101298.47
2023-05-18T20:19:25.463Z,101289.72
2023-05-18T20:21:53.899Z,101177.84
2023-05-18T20:24:22.421Z,101298.13
2023-05-18T20:26:50.953Z,101296.34
2023-05-18T20:29:19.378Z,101290.41
2023-05-18T20:31:48.126Z,101291.31
2023-05-18T20:34:19.513Z,101294.66
2023-05-18T20:36:48.061Z,101296.88
2023-05-18T20:39:16.861Z,101300.88
2023-05-18T20:41:45.431Z,101294.28
2023-05-18T20:44:17.810Z,101299.00
2023-05-18T20:46:48.281Z,101299.84
2023-05-18T20:49:17.141Z,101294.78
2023-05-18T20:51:46.907Z,101300.16
2023-05-18T20:54:15.598Z,101297.47
2023-05-18T20:56:43.906Z,101311.78
2023-05-18T20:59:12.803Z,101303.53
2023-05-18T21:01:42.928Z,101305.22
2023-05-18T21:04:13.031Z,101298.16
2023-05-18T21:06:44.246Z,101304.22
2023-05-18T21:09:14.326Z,101302.22
2023-05-18T21:11:42.891Z,101306.59
2023-05-18T21:14:11.340Z,101299.84
2023-05-18T21:16:40.522Z,101305.38
2023-05-18T21:19:09.262Z,101301.53
2023-05-18T21:21:37.718Z,101257.47
2023-05-18T21:24:06.482Z,101306.75
2023-05-18T21:26:36.334Z,101305.44
2023-05-18T21:29:05.019Z,101307.59
2023-05-18T21:31:33.539Z,101305.75
2023-05-18T21:34:02.137Z,101307.94
2023-05-18T21:36:34.360Z,101300.53
2023-05-18T21:39:04.128Z,101302.53
2023-05-18T21:41:34.208Z,101306.03
2023-05-18T21:44:04.090Z,101307.03
2023-05-18T21:46:32.788Z,101305.34
2023-05-18T21:49:02.577Z,101305.88
2023-05-18T21:51:32.508Z,101308.72
2023-05-18T21:54:02.440Z,101311.91
2023-05-18T21:56:31.055Z,101301.13
2023-05-18T21:58:59.457Z,101301.13
2023-05-18T22:01:30.015Z,101296.91
2023-05-18T22:03:58.504Z,101294.41
2023-05-18T22:06:26.910Z,101301.78
2023-05-18T22:08:55.416Z,101299.25
2023-05-18T22:11:24.633Z,101303.81
2023-05-18T22:13:53.090Z,101299.75
2023-05-18T22:16:21.761Z,101294.34
2023-05-18T22:18:51.630Z,101306.28
2023-05-18T22:21:20.453Z,101306.59
2023-05-18T22:23:48.799Z,101313.16
2023-05-18T22:26:17.333Z,101316.47
2023-05-18T22:28:45.779Z,101320.03
2023-05-18T22:31:14.277Z,101320.19
2023-05-18T22:33:42.810Z,101311.75
2023-05-18T22:36:12.772Z,101312.25
2023-05-18T22:38:43.961Z,101317.78
2023-05-18T22:41:12.407Z,101313.59
2023-05-18T22:43:40.981Z,101313.22
2023-05-18T22:46:09.870Z,101302.09
2023-05-18T22:48:39.681Z,101298.34
2023-05-18T22:51:08.646Z,101296.78
2023-05-18T22:53:38.391Z,101291.00
2023-05-18T22:56:07.507Z,101293.31
2023-05-18T22:58:35.896Z,101285.00
2023-05-18T23:01:04.472Z,101295.22
2023-05-18T23:03:32.923Z,101284.78
2023-05-18T23:06:03.269Z,101287.44
2023-05-18T23:08:36.874Z,101285.91
2023-05-18T23:11:07.045Z,101275.59
2023-05-18T23:13:37.829Z,101272.91
2023-05-18T23:16:10.517Z,101272.06
2023-05-18T23:18:39.283Z,101274.22
2023-05-18T23:21:09.084Z,101262.09
2023-05-18T23:23:37.545Z,101266.94
2023-05-18T23:26:07.484Z,101261.72
2023-05-18T23:28:35.943Z,101269.81
2023-05-18T23:31:04.404Z,101262.03
2023-05-18T23:33:33.626Z,101263.72
2023-05-18T23:36:04.046Z,101255.81
2023-05-18T23:38:38.149Z,101234.16
2023-05-18T23:41:09.748Z,101248.59
2023-05-18T23:43:38.944Z,101246.75
2023-05-18T23:46:10.505Z,101247.09
2023-05-18T23:48:39.704Z,101247.66
2023-05-18T23:51:11.218Z,101245.50
2023-05-18T23:53:40.122Z,101241.66
2023-05-18T23:56:12.457Z,101241.34
2023-05-18T23:58:43.027Z,101241.88
